sensor_id;sensor_type;location;lat;lon;timestamp;P1;durP1;ratioP1;P2;durP2;ratioP2
52858;SDS011;38721;53.098;6.596;2023-11-21T00:00:12;21.63;;;6.57;;
52858;SDS011;38721;53.098;6.596;2023-11-21T00:02:40;25.20;;;7.13;;
52858;SDS011;38721;53.098;6.596;2023-11-21T00:05:07;24.13;;;7.30;;
52858;SDS011;38721;53.098;6.596;2023-11-21T00:07:35;22.10;;;7.53;;
52858;SDS011;38721;53.098;6.596;2023-11-21T00:10:04;24.95;;;7.68;;
52858;SDS011;38721;53.098;6.596;2023-11-21T00:12:31;21.70;;;8.13;;
52858;SDS011;38721;53.098;6.596;2023-11-21T00:14:58;24.13;;;7.30;;
52858;SDS011;38721;53.098;6.596;2023-11-21T00:17:24;23.42;;;7.65;;
52858;SDS011;38721;53.098;6.596;2023-11-21T00:19:50;22.35;;;7.28;;
52858;SDS011;38721;53.098;6.596;2023-11-21T00:22:19;21.85;;;8.30;;
52858;SDS011;38721;53.098;6.596;2023-11-21T00:24:45;24.33;;;7.90;;
52858;SDS011;38721;53.098;6.596;2023-11-21T00:27:11;25.00;;;7.80;;
52858;SDS011;38721;53.098;6.596;2023-11-21T00:29:37;19.98;;;7.15;;
52858;SDS011;38721;53.098;6.596;2023-11-21T00:32:04;24.25;;;7.93;;
52858;SDS011;38721;53.098;6.596;2023-11-21T00:34:31;23.92;;;8.20;;
52858;SDS011;38721;53.098;6.596;2023-11-21T00:36:57;23.17;;;8.27;;
52858;SDS011;38721;53.098;6.596;2023-11-21T00:39:23;27.58;;;8.25;;
52858;SDS011;38721;53.098;6.596;2023-11-21T00:41:50;21.42;;;8.93;;
52858;SDS011;38721;53.098;6.596;2023-11-21T00:44:16;28.48;;;8.77;;
52858;SDS011;38721;53.098;6.596;2023-11-21T00:46:42;32.42;;;8.80;;
52858;SDS011;38721;53.098;6.596;2023-11-21T00:49:08;19.35;;;8.05;;
52858;SDS011;38721;53.098;6.596;2023-11-21T00:51:36;20.77;;;8.80;;
52858;SDS011;38721;53.098;6.596;2023-11-21T00:54:02;26.65;;;8.43;;
52858;SDS011;38721;53.098;6.596;2023-11-21T00:56:28;27.98;;;9.77;;
52858;SDS011;38721;53.098;6.596;2023-11-21T00:58:54;27.48;;;8.90;;
52858;SDS011;38721;53.098;6.596;2023-11-21T01:01:20;29.15;;;9.25;;
52858;SDS011;38721;53.098;6.596;2023-11-21T01:03:49;27.77;;;9.20;;
52858;SDS011;38721;53.098;6.596;2023-11-21T01:06:15;26.95;;;9.45;;
52858;SDS011;38721;53.098;6.596;2023-11-21T01:08:42;26.90;;;10.05;;
52858;SDS011;38721;53.098;6.596;2023-11-21T01:11:11;28.98;;;10.02;;
52858;SDS011;38721;53.098;6.596;2023-11-21T01:13:40;30.52;;;10.00;;
52858;SDS011;38721;53.098;6.596;2023-11-21T01:16:07;32.10;;;9.98;;
52858;SDS011;38721;53.098;6.596;2023-11-21T01:18:34;23.45;;;9.57;;
52858;SDS011;38721;53.098;6.596;2023-11-21T01:21:00;23.33;;;9.70;;
52858;SDS011;38721;53.098;6.596;2023-11-21T01:23:26;31.10;;;10.90;;
52858;SDS011;38721;53.098;6.596;2023-11-21T01:25:52;34.03;;;10.10;;
52858;SDS011;38721;53.098;6.596;2023-11-21T01:28:18;29.98;;;10.48;;
52858;SDS011;38721;53.098;6.596;2023-11-21T01:30:45;28.20;;;9.73;;
52858;SDS011;38721;53.098;6.596;2023-11-21T01:33:11;30.38;;;10.05;;
52858;SDS011;38721;53.098;6.596;2023-11-21T01:35:37;26.27;;;10.27;;
52858;SDS011;38721;53.098;6.596;2023-11-21T01:38:02;28.42;;;9.63;;
52858;SDS011;38721;53.098;6.596;2023-11-21T01:40:29;37.65;;;10.75;;
52858;SDS011;38721;53.098;6.596;2023-11-21T01:42:55;24.95;;;9.65;;
52858;SDS011;38721;53.098;6.596;2023-11-21T01:45:22;33.85;;;10.57;;
52858;SDS011;38721;53.098;6.596;2023-11-21T01:47:50;34.08;;;10.38;;
52858;SDS011;38721;53.098;6.596;2023-11-21T01:50:16;31.15;;;11.20;;
52858;SDS011;38721;53.098;6.596;2023-11-21T01:52:46;27.23;;;9.93;;
52858;SDS011;38721;53.098;6.596;2023-11-21T01:55:13;30.70;;;10.30;;
52858;SDS011;38721;53.098;6.596;2023-11-21T01:57:43;31.73;;;10.35;;
52858;SDS011;38721;53.098;6.596;2023-11-21T02:00:09;27.23;;;10.10;;
52858;SDS011;38721;53.098;6.596;2023-11-21T02:02:47;33.90;;;11.63;;
52858;SDS011;38721;53.098;6.596;2023-11-21T02:05:17;33.10;;;11.18;;
52858;SDS011;38721;53.098;6.596;2023-11-21T02:07:44;31.90;;;11.13;;
52858;SDS011;38721;53.098;6.596;2023-11-21T02:10:13;35.95;;;11.85;;
52858;SDS011;38721;53.098;6.596;2023-11-21T02:12:43;27.50;;;10.85;;
52858;SDS011;38721;53.098;6.596;2023-11-21T02:15:12;27.80;;;11.82;;
52858;SDS011;38721;53.098;6.596;2023-11-21T02:17:51;32.45;;;11.73;;
52858;SDS011;38721;53.098;6.596;2023-11-21T02:20:18;37.72;;;12.32;;
52858;SDS011;38721;53.098;6.596;2023-11-21T02:22:55;33.55;;;10.88;;
52858;SDS011;38721;53.098;6.596;2023-11-21T02:25:25;31.20;;;11.75;;
52858;SDS011;38721;53.098;6.596;2023-11-21T02:27:53;34.20;;;12.15;;
52858;SDS011;38721;53.098;6.596;2023-11-21T02:30:25;37.45;;;11.38;;
52858;SDS011;38721;53.098;6.596;2023-11-21T02:32:53;40.13;;;12.48;;
52858;SDS011;38721;53.098;6.596;2023-11-21T02:35:19;33.75;;;12.73;;
52858;SDS011;38721;53.098;6.596;2023-11-21T02:37:49;28.13;;;10.52;;
52858;SDS011;38721;53.098;6.596;2023-11-21T02:40:15;35.22;;;12.23;;
52858;SDS011;38721;53.098;6.596;2023-11-21T02:42:49;32.10;;;12.15;;
52858;SDS011;38721;53.098;6.596;2023-11-21T02:45:19;38.47;;;11.88;;
52858;SDS011;38721;53.098;6.596;2023-11-21T02:47:49;31.40;;;11.75;;
52858;SDS011;38721;53.098;6.596;2023-11-21T02:50:14;30.65;;;11.88;;
52858;SDS011;38721;53.098;6.596;2023-11-21T02:52:40;34.28;;;11.15;;
52858;SDS011;38721;53.098;6.596;2023-11-21T02:55:06;28.95;;;11.32;;
52858;SDS011;38721;53.098;6.596;2023-11-21T02:57:32;34.67;;;12.68;;
52858;SDS011;38721;53.098;6.596;2023-11-21T02:59:58;35.30;;;12.70;;
52858;SDS011;38721;53.098;6.596;2023-11-21T03:02:25;36.13;;;13.30;;
52858;SDS011;38721;53.098;6.596;2023-11-21T03:04:50;44.53;;;13.43;;
52858;SDS011;38721;53.098;6.596;2023-11-21T03:07:16;31.70;;;13.77;;
52858;SDS011;38721;53.098;6.596;2023-11-21T03:09:46;38.38;;;13.88;;
52858;SDS011;38721;53.098;6.596;2023-11-21T03:12:12;36.55;;;13.88;;
52858;SDS011;38721;53.098;6.596;2023-11-21T03:14:41;35.80;;;13.63;;
52858;SDS011;38721;53.098;6.596;2023-11-21T03:17:07;38.28;;;14.48;;
52858;SDS011;38721;53.098;6.596;2023-11-21T03:19:33;43.72;;;14.82;;
52858;SDS011;38721;53.098;6.596;2023-11-21T03:21:58;52.28;;;16.75;;
52858;SDS011;38721;53.098;6.596;2023-11-21T03:24:24;43.97;;;14.30;;
52858;SDS011;38721;53.098;6.596;2023-11-21T03:26:51;39.58;;;15.20;;
52858;SDS011;38721;53.098;6.596;2023-11-21T03:29:17;37.05;;;15.00;;
52858;SDS011;38721;53.098;6.596;2023-11-21T03:31:42;53.75;;;16.23;;
52858;SDS011;38721;53.098;6.596;2023-11-21T03:34:15;45.50;;;16.92;;
52858;SDS011;38721;53.098;6.596;2023-11-21T03:36:48;50.80;;;16.90;;
52858;SDS011;38721;53.098;6.596;2023-11-21T03:39:14;56.08;;;16.50;;
52858;SDS011;38721;53.098;6.596;2023-11-21T03:41:39;53.97;;;16.63;;
52858;SDS011;38721;53.098;6.596;2023-11-21T03:44:05;47.97;;;17.10;;
52858;SDS011;38721;53.098;6.596;2023-11-21T03:46:31;44.80;;;15.52;;
52858;SDS011;38721;53.098;6.596;2023-11-21T03:48:57;53.60;;;17.98;;
52858;SDS011;38721;53.098;6.596;2023-11-21T03:51:22;61.30;;;16.35;;
52858;SDS011;38721;53.098;6.596;2023-11-21T03:53:48;68.60;;;18.40;;
52858;SDS011;38721;53.098;6.596;2023-11-21T03:56:14;55.75;;;18.45;;
52858;SDS011;38721;53.098;6.596;2023-11-21T03:58:40;55.08;;;18.05;;
52858;SDS011;38721;53.098;6.596;2023-11-21T04:01:05;58.05;;;17.55;;
52858;SDS011;38721;53.098;6.596;2023-11-21T04:03:31;47.67;;;17.98;;
52858;SDS011;38721;53.098;6.596;2023-11-21T04:05:57;46.88;;;18.25;;
52858;SDS011;38721;53.098;6.596;2023-11-21T04:08:22;55.60;;;18.75;;
52858;SDS011;38721;53.098;6.596;2023-11-21T04:10:48;51.83;;;18.77;;
52858;SDS011;38721;53.098;6.596;2023-11-21T04:13:14;86.50;;;23.30;;
52858;SDS011;38721;53.098;6.596;2023-11-21T04:15:39;54.47;;;19.38;;
52858;SDS011;38721;53.098;6.596;2023-11-21T04:18:05;65.78;;;21.30;;
52858;SDS011;38721;53.098;6.596;2023-11-21T04:20:31;50.20;;;19.95;;
52858;SDS011;38721;53.098;6.596;2023-11-21T04:22:57;66.47;;;19.58;;
52858;SDS011;38721;53.098;6.596;2023-11-21T04:25:23;51.75;;;18.90;;
52858;SDS011;38721;53.098;6.596;2023-11-21T04:27:48;54.20;;;19.38;;
52858;SDS011;38721;53.098;6.596;2023-11-21T04:30:15;103.22;;;23.42;;
52858;SDS011;38721;53.098;6.596;2023-11-21T04:32:41;66.15;;;20.10;;
52858;SDS011;38721;53.098;6.596;2023-11-21T04:35:07;56.15;;;19.38;;
52858;SDS011;38721;53.098;6.596;2023-11-21T04:37:36;49.55;;;18.55;;
52858;SDS011;38721;53.098;6.596;2023-11-21T04:40:02;46.72;;;18.25;;
52858;SDS011;38721;53.098;6.596;2023-11-21T04:42:32;44.03;;;18.52;;
52858;SDS011;38721;53.098;6.596;2023-11-21T04:45:04;41.22;;;18.27;;
52858;SDS011;38721;53.098;6.596;2023-11-21T04:47:33;67.57;;;20.67;;
52858;SDS011;38721;53.098;6.596;2023-11-21T04:49:59;42.30;;;18.45;;
52858;SDS011;38721;53.098;6.596;2023-11-21T04:52:25;42.13;;;18.00;;
52858;SDS011;38721;53.098;6.596;2023-11-21T04:54:50;68.55;;;20.40;;
52858;SDS011;38721;53.098;6.596;2023-11-21T04:57:16;45.85;;;18.38;;
52858;SDS011;38721;53.098;6.596;2023-11-21T04:59:43;46.60;;;18.50;;
52858;SDS011;38721;53.098;6.596;2023-11-21T05:02:09;48.45;;;20.05;;
52858;SDS011;38721;53.098;6.596;2023-11-21T05:04:35;46.10;;;18.23;;
52858;SDS011;38721;53.098;6.596;2023-11-21T05:07:00;39.25;;;18.02;;
52858;SDS011;38721;53.098;6.596;2023-11-21T05:09:26;43.95;;;18.10;;
52858;SDS011;38721;53.098;6.596;2023-11-21T05:11:53;43.65;;;18.40;;
52858;SDS011;38721;53.098;6.596;2023-11-21T05:14:19;56.30;;;18.92;;
52858;SDS011;38721;53.098;6.596;2023-11-21T05:16:47;44.63;;;18.10;;
52858;SDS011;38721;53.098;6.596;2023-11-21T05:19:13;40.95;;;17.45;;
52858;SDS011;38721;53.098;6.596;2023-11-21T05:21:38;52.22;;;19.25;;
52858;SDS011;38721;53.098;6.596;2023-11-21T05:24:04;53.28;;;19.80;;
52858;SDS011;38721;53.098;6.596;2023-11-21T05:26:30;43.50;;;17.98;;
52858;SDS011;38721;53.098;6.596;2023-11-21T05:28:56;61.05;;;20.33;;
52858;SDS011;38721;53.098;6.596;2023-11-21T05:31:22;48.60;;;20.15;;
52858;SDS011;38721;53.098;6.596;2023-11-21T05:33:47;58.50;;;20.33;;
52858;SDS011;38721;53.098;6.596;2023-11-21T05:36:13;51.75;;;19.73;;
52858;SDS011;38721;53.098;6.596;2023-11-21T05:38:39;49.38;;;18.58;;
52858;SDS011;38721;53.098;6.596;2023-11-21T05:41:04;57.15;;;19.15;;
52858;SDS011;38721;53.098;6.596;2023-11-21T05:43:30;41.90;;;17.52;;
52858;SDS011;38721;53.098;6.596;2023-11-21T05:45:57;42.80;;;17.65;;
52858;SDS011;38721;53.098;6.596;2023-11-21T05:48:23;45.17;;;16.95;;
52858;SDS011;38721;53.098;6.596;2023-11-21T05:50:49;31.50;;;13.68;;
52858;SDS011;38721;53.098;6.596;2023-11-21T05:53:15;27.48;;;12.20;;
52858;SDS011;38721;53.098;6.596;2023-11-21T05:55:41;27.10;;;12.88;;
52858;SDS011;38721;53.098;6.596;2023-11-21T05:58:07;19.90;;;10.52;;
52858;SDS011;38721;53.098;6.596;2023-11-21T06:00:34;19.67;;;10.15;;
52858;SDS011;38721;53.098;6.596;2023-11-21T06:03:00;19.98;;;10.73;;
52858;SDS011;38721;53.098;6.596;2023-11-21T06:05:26;27.20;;;10.60;;
52858;SDS011;38721;53.098;6.596;2023-11-21T06:07:52;20.48;;;10.23;;
52858;SDS011;38721;53.098;6.596;2023-11-21T06:10:19;22.75;;;9.45;;
52858;SDS011;38721;53.098;6.596;2023-11-21T06:12:46;20.67;;;10.23;;
52858;SDS011;38721;53.098;6.596;2023-11-21T06:15:12;22.83;;;10.82;;
52858;SDS011;38721;53.098;6.596;2023-11-21T06:17:42;18.80;;;9.70;;
52858;SDS011;38721;53.098;6.596;2023-11-21T06:20:10;21.58;;;11.43;;
52858;SDS011;38721;53.098;6.596;2023-11-21T06:22:40;23.90;;;11.07;;
52858;SDS011;38721;53.098;6.596;2023-11-21T06:25:07;23.60;;;11.07;;
52858;SDS011;38721;53.098;6.596;2023-11-21T06:27:38;22.95;;;10.93;;
52858;SDS011;38721;53.098;6.596;2023-11-21T06:30:05;27.40;;;12.50;;
52858;SDS011;38721;53.098;6.596;2023-11-21T06:32:31;24.13;;;12.18;;
52858;SDS011;38721;53.098;6.596;2023-11-21T06:34:57;25.27;;;12.35;;
52858;SDS011;38721;53.098;6.596;2023-11-21T06:37:28;27.85;;;12.75;;
52858;SDS011;38721;53.098;6.596;2023-11-21T06:39:56;28.38;;;12.70;;
52858;SDS011;38721;53.098;6.596;2023-11-21T06:42:25;29.13;;;12.73;;
52858;SDS011;38721;53.098;6.596;2023-11-21T06:44:52;27.58;;;12.57;;
52858;SDS011;38721;53.098;6.596;2023-11-21T06:47:19;29.98;;;12.77;;
52858;SDS011;38721;53.098;6.596;2023-11-21T06:49:50;27.05;;;12.27;;
52858;SDS011;38721;53.098;6.596;2023-11-21T06:52:17;29.70;;;13.70;;
52858;SDS011;38721;53.098;6.596;2023-11-21T06:54:43;28.63;;;13.05;;
52858;SDS011;38721;53.098;6.596;2023-11-21T06:57:10;34.10;;;14.55;;
52858;SDS011;38721;53.098;6.596;2023-11-21T06:59:36;30.88;;;14.70;;
52858;SDS011;38721;53.098;6.596;2023-11-21T07:02:02;36.75;;;14.90;;
52858;SDS011;38721;53.098;6.596;2023-11-21T07:04:27;31.20;;;14.95;;
52858;SDS011;38721;53.098;6.596;2023-11-21T07:06:53;30.35;;;14.32;;
52858;SDS011;38721;53.098;6.596;2023-11-21T07:09:19;29.90;;;14.30;;
52858;SDS011;38721;53.098;6.596;2023-11-21T07:11:48;29.33;;;12.52;;
52858;SDS011;38721;53.098;6.596;2023-11-21T07:14:15;25.80;;;13.43;;
52858;SDS011;38721;53.098;6.596;2023-11-21T07:16:43;27.33;;;14.13;;
52858;SDS011;38721;53.098;6.596;2023-11-21T07:19:08;26.85;;;12.35;;
52858;SDS011;38721;53.098;6.596;2023-11-21T07:21:34;27.27;;;14.20;;
52858;SDS011;38721;53.098;6.596;2023-11-21T07:24:01;28.50;;;14.70;;
52858;SDS011;38721;53.098;6.596;2023-11-21T07:26:28;27.35;;;13.93;;
52858;SDS011;38721;53.098;6.596;2023-11-21T07:28:54;30.35;;;14.70;;
52858;SDS011;38721;53.098;6.596;2023-11-21T07:31:20;26.20;;;12.50;;
52858;SDS011;38721;53.098;6.596;2023-11-21T07:33:47;24.83;;;13.02;;
52858;SDS011;38721;53.098;6.596;2023-11-21T07:36:14;21.02;;;12.05;;
52858;SDS011;38721;53.098;6.596;2023-11-21T07:38:40;21.30;;;11.35;;
52858;SDS011;38721;53.098;6.596;2023-11-21T07:41:06;20.20;;;11.30;;
52858;SDS011;38721;53.098;6.596;2023-11-21T07:43:35;21.73;;;11.50;;
52858;SDS011;38721;53.098;6.596;2023-11-21T07:46:01;22.13;;;11.50;;
52858;SDS011;38721;53.098;6.596;2023-11-21T07:48:30;19.90;;;11.00;;
52858;SDS011;38721;53.098;6.596;2023-11-21T07:51:00;21.40;;;11.23;;
52858;SDS011;38721;53.098;6.596;2023-11-21T07:53:27;20.20;;;12.00;;
52858;SDS011;38721;53.098;6.596;2023-11-21T07:55:55;25.75;;;14.40;;
52858;SDS011;38721;53.098;6.596;2023-11-21T07:58:21;28.15;;;14.77;;
52858;SDS011;38721;53.098;6.596;2023-11-21T08:00:47;31.35;;;16.02;;
52858;SDS011;38721;53.098;6.596;2023-11-21T08:03:13;26.77;;;15.88;;
52858;SDS011;38721;53.098;6.596;2023-11-21T08:05:39;28.52;;;15.68;;
52858;SDS011;38721;53.098;6.596;2023-11-21T08:08:08;28.65;;;16.08;;
52858;SDS011;38721;53.098;6.596;2023-11-21T08:10:34;25.45;;;15.30;;
52858;SDS011;38721;53.098;6.596;2023-11-21T08:13:03;28.77;;;15.63;;
52858;SDS011;38721;53.098;6.596;2023-11-21T08:15:29;29.35;;;17.23;;
52858;SDS011;38721;53.098;6.596;2023-11-21T08:17:58;34.90;;;18.02;;
52858;SDS011;38721;53.098;6.596;2023-11-21T08:20:24;35.83;;;17.60;;
52858;SDS011;38721;53.098;6.596;2023-11-21T08:22:50;35.00;;;17.98;;
52858;SDS011;38721;53.098;6.596;2023-11-21T08:25:17;31.85;;;18.40;;
52858;SDS011;38721;53.098;6.596;2023-11-21T08:27:45;33.30;;;18.73;;
52858;SDS011;38721;53.098;6.596;2023-11-21T08:30:11;35.58;;;18.80;;
52858;SDS011;38721;53.098;6.596;2023-11-21T08:32:39;31.63;;;19.05;;
52858;SDS011;38721;53.098;6.596;2023-11-21T08:35:07;32.22;;;19.77;;
52858;SDS011;38721;53.098;6.596;2023-11-21T08:37:33;33.63;;;19.73;;
52858;SDS011;38721;53.098;6.596;2023-11-21T08:40:02;34.25;;;18.65;;
52858;SDS011;38721;53.098;6.596;2023-11-21T08:42:32;29.92;;;18.60;;
52858;SDS011;38721;53.098;6.596;2023-11-21T08:44:58;29.38;;;18.10;;
52858;SDS011;38721;53.098;6.596;2023-11-21T08:47:23;27.75;;;17.77;;
52858;SDS011;38721;53.098;6.596;2023-11-21T08:49:50;26.67;;;17.35;;
52858;SDS011;38721;53.098;6.596;2023-11-21T08:52:18;26.60;;;18.20;;
52858;SDS011;38721;53.098;6.596;2023-11-21T08:54:50;24.77;;;16.55;;
52858;SDS011;38721;53.098;6.596;2023-11-21T08:57:24;29.95;;;17.65;;
52858;SDS011;38721;53.098;6.596;2023-11-21T08:59:53;26.50;;;17.38;;
52858;SDS011;38721;53.098;6.596;2023-11-21T09:02:25;26.77;;;17.23;;
52858;SDS011;38721;53.098;6.596;2023-11-21T09:04:51;23.17;;;16.33;;
52858;SDS011;38721;53.098;6.596;2023-11-21T09:07:20;23.05;;;16.08;;
52858;SDS011;38721;53.098;6.596;2023-11-21T09:09:47;21.88;;;16.08;;
52858;SDS011;38721;53.098;6.596;2023-11-21T09:12:14;22.85;;;16.02;;
52858;SDS011;38721;53.098;6.596;2023-11-21T09:14:41;21.20;;;14.65;;
52858;SDS011;38721;53.098;6.596;2023-11-21T09:17:07;22.75;;;15.48;;
52858;SDS011;38721;53.098;6.596;2023-11-21T09:19:39;19.95;;;13.93;;
52858;SDS011;38721;53.098;6.596;2023-11-21T09:22:05;21.08;;;14.60;;
52858;SDS011;38721;53.098;6.596;2023-11-21T09:24:31;22.42;;;14.90;;
52858;SDS011;38721;53.098;6.596;2023-11-21T09:26:57;22.73;;;15.02;;
52858;SDS011;38721;53.098;6.596;2023-11-21T09:29:25;20.77;;;14.10;;
52858;SDS011;38721;53.098;6.596;2023-11-21T09:31:51;22.55;;;14.65;;
52858;SDS011;38721;53.098;6.596;2023-11-21T09:34:17;19.42;;;13.95;;
52858;SDS011;38721;53.098;6.596;2023-11-21T09:36:46;20.20;;;14.50;;
52858;SDS011;38721;53.098;6.596;2023-11-21T09:39:13;21.10;;;14.27;;
52858;SDS011;38721;53.098;6.596;2023-11-21T09:41:48;23.25;;;13.70;;
52858;SDS011;38721;53.098;6.596;2023-11-21T09:44:20;18.58;;;13.30;;
52858;SDS011;38721;53.098;6.596;2023-11-21T09:46:55;19.17;;;13.40;;
52858;SDS011;38721;53.098;6.596;2023-11-21T09:49:24;20.90;;;13.90;;
52858;SDS011;38721;53.098;6.596;2023-11-21T09:51:53;22.58;;;14.20;;
52858;SDS011;38721;53.098;6.596;2023-11-21T09:54:23;19.65;;;13.13;;
52858;SDS011;38721;53.098;6.596;2023-11-21T09:56:50;19.27;;;12.63;;
52858;SDS011;38721;53.098;6.596;2023-11-21T09:59:16;20.15;;;12.93;;
52858;SDS011;38721;53.098;6.596;2023-11-21T10:01:42;19.33;;;12.75;;
52858;SDS011;38721;53.098;6.596;2023-11-21T10:04:08;15.73;;;11.73;;
52858;SDS011;38721;53.098;6.596;2023-11-21T10:06:38;17.38;;;11.88;;
52858;SDS011;38721;53.098;6.596;2023-11-21T10:09:06;17.25;;;12.55;;
52858;SDS011;38721;53.098;6.596;2023-11-21T10:11:43;15.10;;;11.38;;
52858;SDS011;38721;53.098;6.596;2023-11-21T10:14:10;16.55;;;11.43;;
52858;SDS011;38721;53.098;6.596;2023-11-21T10:16:38;16.08;;;10.60;;
52858;SDS011;38721;53.098;6.596;2023-11-21T10:19:05;16.30;;;9.95;;
52858;SDS011;38721;53.098;6.596;2023-11-21T10:21:34;13.27;;;10.07;;
52858;SDS011;38721;53.098;6.596;2023-11-21T10:24:00;14.13;;;9.70;;
52858;SDS011;38721;53.098;6.596;2023-11-21T10:26:26;15.57;;;10.40;;
52858;SDS011;38721;53.098;6.596;2023-11-21T10:28:59;14.07;;;8.82;;
52858;SDS011;38721;53.098;6.596;2023-11-21T10:31:31;12.43;;;8.30;;
52858;SDS011;38721;53.098;6.596;2023-11-21T10:34:14;11.20;;;8.48;;
52858;SDS011;38721;53.098;6.596;2023-11-21T10:36:41;11.82;;;8.45;;
52858;SDS011;38721;53.098;6.596;2023-11-21T10:39:07;12.00;;;8.13;;
52858;SDS011;38721;53.098;6.596;2023-11-21T10:41:35;10.77;;;8.13;;
52858;SDS011;38721;53.098;6.596;2023-11-21T10:44:01;11.52;;;8.25;;
52858;SDS011;38721;53.098;6.596;2023-11-21T10:46:32;11.32;;;7.95;;
52858;SDS011;38721;53.098;6.596;2023-11-21T10:48:57;10.18;;;7.57;;
52858;SDS011;38721;53.098;6.596;2023-11-21T10:51:23;12.23;;;8.15;;
52858;SDS011;38721;53.098;6.596;2023-11-21T10:53:53;9.55;;;7.28;;
52858;SDS011;38721;53.098;6.596;2023-11-21T10:56:19;11.43;;;7.35;;
52858;SDS011;38721;53.098;6.596;2023-11-21T10:58:49;11.23;;;7.75;;
52858;SDS011;38721;53.098;6.596;2023-11-21T11:01:17;9.82;;;6.97;;
52858;SDS011;38721;53.098;6.596;2023-11-21T11:03:46;9.13;;;7.03;;
52858;SDS011;38721;53.098;6.596;2023-11-21T11:06:13;11.88;;;7.45;;
52858;SDS011;38721;53.098;6.596;2023-11-21T11:08:40;10.13;;;7.30;;
52858;SDS011;38721;53.098;6.596;2023-11-21T11:11:06;10.40;;;6.93;;
52858;SDS011;38721;53.098;6.596;2023-11-21T11:13:32;9.40;;;6.63;;
52858;SDS011;38721;53.098;6.596;2023-11-21T11:15:59;11.52;;;7.43;;
52858;SDS011;38721;53.098;6.596;2023-11-21T11:18:32;9.43;;;7.05;;
52858;SDS011;38721;53.098;6.596;2023-11-21T11:21:14;10.82;;;6.65;;
52858;SDS011;38721;53.098;6.596;2023-11-21T11:26:34;11.18;;;7.45;;
52858;SDS011;38721;53.098;6.596;2023-11-21T11:34:42;10.00;;;7.28;;
52858;SDS011;38721;53.098;6.596;2023-11-21T11:37:12;11.23;;;7.38;;
52858;SDS011;38721;53.098;6.596;2023-11-21T11:39:39;10.02;;;7.00;;
52858;SDS011;38721;53.098;6.596;2023-11-21T11:42:13;9.70;;;6.90;;
52858;SDS011;38721;53.098;6.596;2023-11-21T11:50:06;11.57;;;6.20;;
52858;SDS011;38721;53.098;6.596;2023-11-21T11:52:51;8.65;;;6.15;;
52858;SDS011;38721;53.098;6.596;2023-11-21T11:55:20;8.95;;;6.20;;
52858;SDS011;38721;53.098;6.596;2023-11-21T11:57:47;7.97;;;5.95;;
52858;SDS011;38721;53.098;6.596;2023-11-21T12:00:21;8.45;;;5.82;;
52858;SDS011;38721;53.098;6.596;2023-11-21T12:03:23;9.20;;;5.95;;
52858;SDS011;38721;53.098;6.596;2023-11-21T12:05:42;8.27;;;5.95;;
52858;SDS011;38721;53.098;6.596;2023-11-21T12:08:10;8.65;;;5.97;;
52858;SDS011;38721;53.098;6.596;2023-11-21T12:10:37;8.98;;;6.32;;
52858;SDS011;38721;53.098;6.596;2023-11-21T12:13:08;8.70;;;6.05;;
52858;SDS011;38721;53.098;6.596;2023-11-21T12:15:38;9.27;;;5.85;;
52858;SDS011;38721;53.098;6.596;2023-11-21T12:18:05;10.07;;;6.30;;
52858;SDS011;38721;53.098;6.596;2023-11-21T12:20:31;8.55;;;6.10;;
52858;SDS011;38721;53.098;6.596;2023-11-21T12:22:58;9.48;;;6.25;;
52858;SDS011;38721;53.098;6.596;2023-11-21T12:25:25;10.13;;;6.78;;
52858;SDS011;38721;53.098;6.596;2023-11-21T12:27:54;9.68;;;5.90;;
52858;SDS011;38721;53.098;6.596;2023-11-21T12:30:22;7.63;;;5.25;;
52858;SDS011;38721;53.098;6.596;2023-11-21T12:32:52;7.65;;;5.38;;
52858;SDS011;38721;53.098;6.596;2023-11-21T12:35:21;7.85;;;5.13;;
52858;SDS011;38721;53.098;6.596;2023-11-21T12:37:48;7.47;;;5.13;;
52858;SDS011;38721;53.098;6.596;2023-11-21T12:40:15;7.60;;;5.32;;
52858;SDS011;38721;53.098;6.596;2023-11-21T12:42:42;7.70;;;5.40;;
52858;SDS011;38721;53.098;6.596;2023-11-21T12:47:52;7.88;;;5.90;;
52858;SDS011;38721;53.098;6.596;2023-11-21T12:50:22;8.63;;;5.60;;
52858;SDS011;38721;53.098;6.596;2023-11-21T12:52:51;8.55;;;5.55;;
52858;SDS011;38721;53.098;6.596;2023-11-21T12:55:22;10.07;;;5.70;;
52858;SDS011;38721;53.098;6.596;2023-11-21T12:57:49;8.25;;;5.90;;
52858;SDS011;38721;53.098;6.596;2023-11-21T13:00:17;6.88;;;4.93;;
52858;SDS011;38721;53.098;6.596;2023-11-21T13:02:54;10.68;;;5.63;;
52858;SDS011;38721;53.098;6.596;2023-11-21T13:05:32;6.50;;;4.93;;
52858;SDS011;38721;53.098;6.596;2023-11-21T13:08:01;9.25;;;5.50;;
52858;SDS011;38721;53.098;6.596;2023-11-21T13:10:30;8.68;;;5.65;;
52858;SDS011;38721;53.098;6.596;2023-11-21T13:13:00;7.43;;;5.50;;
52858;SDS011;38721;53.098;6.596;2023-11-21T13:15:30;7.30;;;5.70;;
52858;SDS011;38721;53.098;6.596;2023-11-21T13:17:57;7.50;;;5.82;;
52858;SDS011;38721;53.098;6.596;2023-11-21T13:20:24;10.02;;;6.15;;
52858;SDS011;38721;53.098;6.596;2023-11-21T13:22:54;9.00;;;5.82;;
52858;SDS011;38721;53.098;6.596;2023-11-21T13:25:28;10.95;;;6.22;;
52858;SDS011;38721;53.098;6.596;2023-11-21T13:27:56;9.02;;;6.55;;
52858;SDS011;38721;53.098;6.596;2023-11-21T13:30:23;8.15;;;5.97;;
52858;SDS011;38721;53.098;6.596;2023-11-21T13:32:56;9.48;;;6.20;;
52858;SDS011;38721;53.098;6.596;2023-11-21T13:35:30;9.95;;;6.30;;
52858;SDS011;38721;53.098;6.596;2023-11-21T13:38:06;8.18;;;6.55;;
52858;SDS011;38721;53.098;6.596;2023-11-21T13:40:34;9.00;;;6.30;;
52858;SDS011;38721;53.098;6.596;2023-11-21T13:43:15;10.30;;;6.18;;
52858;SDS011;38721;53.098;6.596;2023-11-21T13:45:46;9.63;;;6.10;;
52858;SDS011;38721;53.098;6.596;2023-11-21T13:48:13;7.68;;;6.00;;
52858;SDS011;38721;53.098;6.596;2023-11-21T13:50:39;8.63;;;5.68;;
52858;SDS011;38721;53.098;6.596;2023-11-21T13:53:13;8.75;;;5.50;;
52858;SDS011;38721;53.098;6.596;2023-11-21T13:58:19;7.25;;;5.95;;
52858;SDS011;38721;53.098;6.596;2023-11-21T14:00:57;6.88;;;5.20;;
52858;SDS011;38721;53.098;6.596;2023-11-21T14:03:23;8.23;;;5.45;;
52858;SDS011;38721;53.098;6.596;2023-11-21T14:05:58;7.53;;;5.65;;
52858;SDS011;38721;53.098;6.596;2023-11-21T14:08:26;10.50;;;6.68;;
52858;SDS011;38721;53.098;6.596;2023-11-21T14:10:57;7.75;;;6.20;;
52858;SDS011;38721;53.098;6.596;2023-11-21T14:13:25;7.97;;;6.15;;
52858;SDS011;38721;53.098;6.596;2023-11-21T14:15:53;8.93;;;6.05;;
52858;SDS011;38721;53.098;6.596;2023-11-21T14:18:27;8.82;;;6.15;;
52858;SDS011;38721;53.098;6.596;2023-11-21T14:21:03;8.98;;;6.10;;
52858;SDS011;38721;53.098;6.596;2023-11-21T14:23:31;11.20;;;6.65;;
52858;SDS011;38721;53.098;6.596;2023-11-21T14:25:58;7.90;;;6.70;;
52858;SDS011;38721;53.098;6.596;2023-11-21T14:28:29;9.50;;;7.07;;
52858;SDS011;38721;53.098;6.596;2023-11-21T14:30:54;10.45;;;7.22;;
52858;SDS011;38721;53.098;6.596;2023-11-21T14:33:21;9.00;;;6.93;;
52858;SDS011;38721;53.098;6.596;2023-11-21T14:35:47;10.60;;;7.25;;
52858;SDS011;38721;53.098;6.596;2023-11-21T14:38:13;8.80;;;6.90;;
52858;SDS011;38721;53.098;6.596;2023-11-21T14:40:39;10.68;;;7.13;;
52858;SDS011;38721;53.098;6.596;2023-11-21T14:43:06;9.02;;;6.55;;
52858;SDS011;38721;53.098;6.596;2023-11-21T14:45:32;9.77;;;7.32;;
52858;SDS011;38721;53.098;6.596;2023-11-21T14:47:59;12.35;;;7.70;;
52858;SDS011;38721;53.098;6.596;2023-11-21T14:50:34;10.75;;;7.00;;